Columbia Falls, MT (59912)

9:38 PM MDT on July 25, 2016 (GMT -0600)
Fred's House | | Change Station

Elev 3077 ft 48.35 °N, 114.14 °W | Updated 1 second ago

Clear
Clear
75.7 °F
Feels Like 77 °F
N
0.0
Wind Variable Wind from NNE
Gusts 0.0 mph

Today
High -- | Low -- °F
--% Chance of Precip.
Yesterday
High -- | Low -- °F
Precip. -- in
Pressure 29.98 in
Visibility 10.0 miles
Clouds
Heat Index 77 °F
Dew Point 69 °F
Humidity 79%
Rainfall 0.00 in
Snow Depth Not available.
6:03 AM 9:22 PM
Waning Gibbous, 59% visible
METAR KCTB 260256Z AUTO 04008KT 10SM 24/09 A3007 RMK AO2 SLP150 T02390094 58002 $
Pressure 29.98 in
Visibility 10.0 miles
Clouds
Heat Index 77 °F
Dew Point 69 °F
Humidity 79%
Rainfall 0.00 in
Snow Depth Not available.
6:03 AM 9:22 PM
Waning Gibbous, 59% visible
METAR KCTB 260256Z AUTO 04008KT 10SM 24/09 A3007 RMK AO2 SLP150 T02390094 58002 $

10-Day Weather Forecast

Almanac

Astronomy

Jul. 25, 2016 Rise Set
Actual Time
Civil Twilight
Nautical Twilight
Astronomical Twilight
Moon
Length of Visible Light
Length of Day
Tomorrow will be .
, % of the Moon is Illuminated

Today's Extremes

State Highs State Lows

Community

WunderPhotos

Upload Photos

1,927,522 photos uploaded!

WunderBlog® & News

Nearby

Air Quality

  Air Quality AQ Index Pollutant
Not available.

Snow Depth

Station Depth Elevation

Earthquake Activity

City Distance Mag. Time & Date
Minimum magnitude displayed is 2.5.

Coastal Water Temperatures

Place Temperature

Stations

Nearby Weather Stations

Station Location Temp. Windchill Dew Point Humidity Wind Precip. Elev Updated Type
                   

Watches & Warnings

There are currently no watches in effect.